sensor_id;sensor_type;location;lat;lon;timestamp;P1;durP1;ratioP1;P2;durP2;ratioP2
26620;SDS011;14253;44.840;10.444;2022-10-17T00:02:24;21.85;;;15.27;;
26620;SDS011;14253;44.840;10.444;2022-10-17T00:04:50;22.60;;;14.73;;
26620;SDS011;14253;44.840;10.444;2022-10-17T00:07:16;24.85;;;15.90;;
26620;SDS011;14253;44.840;10.444;2022-10-17T00:09:42;23.67;;;16.33;;
26620;SDS011;14253;44.840;10.444;2022-10-17T00:12:08;21.42;;;14.90;;
26620;SDS011;14253;44.840;10.444;2022-10-17T00:14:35;24.50;;;14.57;;
26620;SDS011;14253;44.840;10.444;2022-10-17T00:17:01;20.05;;;14.43;;
26620;SDS011;14253;44.840;10.444;2022-10-17T00:19:27;20.15;;;14.02;;
26620;SDS011;14253;44.840;10.444;2022-10-17T00:21:53;19.55;;;14.20;;
26620;SDS011;14253;44.840;10.444;2022-10-17T00:24:19;22.42;;;13.90;;
26620;SDS011;14253;44.840;10.444;2022-10-17T00:26:45;20.67;;;13.75;;
26620;SDS011;14253;44.840;10.444;2022-10-17T00:29:11;19.42;;;14.15;;
26620;SDS011;14253;44.840;10.444;2022-10-17T00:31:37;22.15;;;14.50;;
26620;SDS011;14253;44.840;10.444;2022-10-17T00:34:03;22.13;;;15.43;;
26620;SDS011;14253;44.840;10.444;2022-10-17T00:36:29;21.52;;;14.55;;
26620;SDS011;14253;44.840;10.444;2022-10-17T00:38:56;20.38;;;15.57;;
26620;SDS011;14253;44.840;10.444;2022-10-17T00:41:25;21.00;;;15.02;;
26620;SDS011;14253;44.840;10.444;2022-10-17T00:46:26;23.63;;;14.52;;
26620;SDS011;14253;44.840;10.444;2022-10-17T00:48:56;30.30;;;16.85;;
26620;SDS011;14253;44.840;10.444;2022-10-17T00:51:27;23.75;;;15.85;;
26620;SDS011;14253;44.840;10.444;2022-10-17T00:53:58;24.05;;;15.90;;
26620;SDS011;14253;44.840;10.444;2022-10-17T00:56:25;22.30;;;15.20;;
26620;SDS011;14253;44.840;10.444;2022-10-17T00:58:52;20.63;;;14.75;;
26620;SDS011;14253;44.840;10.444;2022-10-17T01:01:18;25.17;;;15.73;;
26620;SDS011;14253;44.840;10.444;2022-10-17T01:03:44;24.75;;;16.40;;
26620;SDS011;14253;44.840;10.444;2022-10-17T01:06:10;22.13;;;16.05;;
26620;SDS011;14253;44.840;10.444;2022-10-17T01:08:36;24.63;;;16.35;;
26620;SDS011;14253;44.840;10.444;2022-10-17T01:13:58;24.38;;;15.32;;
26620;SDS011;14253;44.840;10.444;2022-10-17T01:16:34;19.52;;;14.40;;
26620;SDS011;14253;44.840;10.444;2022-10-17T01:19:29;20.85;;;15.45;;
26620;SDS011;14253;44.840;10.444;2022-10-17T01:28:03;23.60;;;16.38;;
26620;SDS011;14253;44.840;10.444;2022-10-17T01:36:35;24.38;;;16.58;;
26620;SDS011;14253;44.840;10.444;2022-10-17T01:39:14;22.67;;;16.27;;
26620;SDS011;14253;44.840;10.444;2022-10-17T01:42:31;24.38;;;15.98;;
26620;SDS011;14253;44.840;10.444;2022-10-17T01:44:48;23.98;;;16.48;;
26620;SDS011;14253;44.840;10.444;2022-10-17T01:47:29;22.80;;;17.42;;
26620;SDS011;14253;44.840;10.444;2022-10-17T01:52:39;24.05;;;16.08;;
26620;SDS011;14253;44.840;10.444;2022-10-17T01:55:27;22.73;;;16.83;;
26620;SDS011;14253;44.840;10.444;2022-10-17T01:58:00;20.58;;;15.15;;
26620;SDS011;14253;44.840;10.444;2022-10-17T02:00:38;23.75;;;17.10;;
26620;SDS011;14253;44.840;10.444;2022-10-17T02:03:08;21.50;;;15.25;;
26620;SDS011;14253;44.840;10.444;2022-10-17T02:08:05;23.90;;;15.25;;
26620;SDS011;14253;44.840;10.444;2022-10-17T02:10:46;23.42;;;14.93;;
26620;SDS011;14253;44.840;10.444;2022-10-17T02:27:13;23.40;;;15.73;;
26620;SDS011;14253;44.840;10.444;2022-10-17T02:29:48;23.20;;;16.15;;
26620;SDS011;14253;44.840;10.444;2022-10-17T02:32:26;21.10;;;15.70;;
26620;SDS011;14253;44.840;10.444;2022-10-17T02:35:20;22.90;;;15.10;;
26620;SDS011;14253;44.840;10.444;2022-10-17T02:37:46;20.30;;;15.35;;
26620;SDS011;14253;44.840;10.444;2022-10-17T02:40:15;20.08;;;13.80;;
26620;SDS011;14253;44.840;10.444;2022-10-17T02:42:44;23.10;;;13.95;;
26620;SDS011;14253;44.840;10.444;2022-10-17T02:45:12;18.90;;;13.60;;
26620;SDS011;14253;44.840;10.444;2022-10-17T02:47:46;21.83;;;15.15;;
26620;SDS011;14253;44.840;10.444;2022-10-17T02:50:21;25.52;;;13.45;;
26620;SDS011;14253;44.840;10.444;2022-10-17T02:53:00;22.27;;;14.93;;
26620;SDS011;14253;44.840;10.444;2022-10-17T02:55:35;19.35;;;14.02;;
26620;SDS011;14253;44.840;10.444;2022-10-17T02:58:17;19.80;;;13.55;;
26620;SDS011;14253;44.840;10.444;2022-10-17T03:00:45;19.42;;;14.23;;
26620;SDS011;14253;44.840;10.444;2022-10-17T03:03:17;22.17;;;14.57;;
26620;SDS011;14253;44.840;10.444;2022-10-17T03:05:46;19.25;;;14.00;;
26620;SDS011;14253;44.840;10.444;2022-10-17T03:08:12;20.15;;;14.88;;
26620;SDS011;14253;44.840;10.444;2022-10-17T03:10:38;25.23;;;16.00;;
26620;SDS011;14253;44.840;10.444;2022-10-17T03:13:04;20.88;;;14.95;;
26620;SDS011;14253;44.840;10.444;2022-10-17T03:15:34;23.25;;;15.57;;
26620;SDS011;14253;44.840;10.444;2022-10-17T03:18:00;22.10;;;15.95;;
26620;SDS011;14253;44.840;10.444;2022-10-17T03:20:26;21.85;;;15.68;;
26620;SDS011;14253;44.840;10.444;2022-10-17T03:22:52;25.67;;;16.15;;
26620;SDS011;14253;44.840;10.444;2022-10-17T03:25:18;24.63;;;16.33;;
26620;SDS011;14253;44.840;10.444;2022-10-17T03:27:46;26.30;;;16.15;;
26620;SDS011;14253;44.840;10.444;2022-10-17T03:30:12;26.92;;;17.13;;
26620;SDS011;14253;44.840;10.444;2022-10-17T03:32:38;23.58;;;16.30;;
26620;SDS011;14253;44.840;10.444;2022-10-17T03:35:04;25.88;;;15.90;;
26620;SDS011;14253;44.840;10.444;2022-10-17T03:37:30;24.70;;;16.73;;
26620;SDS011;14253;44.840;10.444;2022-10-17T03:39:57;21.95;;;16.40;;
26620;SDS011;14253;44.840;10.444;2022-10-17T03:42:23;26.73;;;17.50;;
26620;SDS011;14253;44.840;10.444;2022-10-17T03:44:49;30.08;;;17.08;;
26620;SDS011;14253;44.840;10.444;2022-10-17T03:47:15;25.50;;;17.70;;
26620;SDS011;14253;44.840;10.444;2022-10-17T03:49:42;23.90;;;18.63;;
26620;SDS011;14253;44.840;10.444;2022-10-17T03:52:12;30.48;;;18.50;;
26620;SDS011;14253;44.840;10.444;2022-10-17T03:54:39;25.67;;;18.50;;
26620;SDS011;14253;44.840;10.444;2022-10-17T03:57:05;26.80;;;17.75;;
26620;SDS011;14253;44.840;10.444;2022-10-17T03:59:31;22.30;;;17.13;;
26620;SDS011;14253;44.840;10.444;2022-10-17T04:02:03;23.63;;;16.23;;
26620;SDS011;14253;44.840;10.444;2022-10-17T04:04:29;28.13;;;17.83;;
26620;SDS011;14253;44.840;10.444;2022-10-17T04:06:56;26.35;;;17.85;;
26620;SDS011;14253;44.840;10.444;2022-10-17T04:09:22;24.35;;;17.20;;
26620;SDS011;14253;44.840;10.444;2022-10-17T04:12:11;24.73;;;17.70;;
26620;SDS011;14253;44.840;10.444;2022-10-17T04:14:38;25.98;;;18.42;;
26620;SDS011;14253;44.840;10.444;2022-10-17T04:17:04;31.42;;;17.42;;
26620;SDS011;14253;44.840;10.444;2022-10-17T04:19:31;25.33;;;17.83;;
26620;SDS011;14253;44.840;10.444;2022-10-17T04:21:57;30.08;;;16.20;;
26620;SDS011;14253;44.840;10.444;2022-10-17T04:24:25;33.78;;;17.92;;
26620;SDS011;14253;44.840;10.444;2022-10-17T04:27:04;32.90;;;16.10;;
26620;SDS011;14253;44.840;10.444;2022-10-17T04:29:32;40.70;;;17.85;;
26620;SDS011;14253;44.840;10.444;2022-10-17T04:32:18;35.50;;;16.83;;
26620;SDS011;14253;44.840;10.444;2022-10-17T04:35:07;31.35;;;16.20;;
26620;SDS011;14253;44.840;10.444;2022-10-17T04:37:33;33.45;;;17.17;;
26620;SDS011;14253;44.840;10.444;2022-10-17T04:42:32;38.15;;;16.00;;
26620;SDS011;14253;44.840;10.444;2022-10-17T04:44:58;30.20;;;16.17;;
26620;SDS011;14253;44.840;10.444;2022-10-17T04:47:25;36.45;;;18.27;;
26620;SDS011;14253;44.840;10.444;2022-10-17T04:49:51;32.30;;;16.35;;
26620;SDS011;14253;44.840;10.444;2022-10-17T04:52:19;30.80;;;16.38;;
26620;SDS011;14253;44.840;10.444;2022-10-17T04:54:47;24.30;;;16.52;;
26620;SDS011;14253;44.840;10.444;2022-10-17T04:57:14;28.77;;;16.92;;
26620;SDS011;14253;44.840;10.444;2022-10-17T04:59:46;28.02;;;17.00;;
26620;SDS011;14253;44.840;10.444;2022-10-17T05:02:20;25.77;;;16.25;;
26620;SDS011;14253;44.840;10.444;2022-10-17T05:04:46;26.60;;;16.45;;
26620;SDS011;14253;44.840;10.444;2022-10-17T05:07:13;27.88;;;16.83;;
26620;SDS011;14253;44.840;10.444;2022-10-17T05:09:39;24.17;;;14.98;;
26620;SDS011;14253;44.840;10.444;2022-10-17T05:12:05;26.52;;;15.25;;
26620;SDS011;14253;44.840;10.444;2022-10-17T05:14:31;33.28;;;16.35;;
26620;SDS011;14253;44.840;10.444;2022-10-17T05:16:57;25.08;;;16.02;;
26620;SDS011;14253;44.840;10.444;2022-10-17T05:19:24;31.48;;;16.20;;
26620;SDS011;14253;44.840;10.444;2022-10-17T05:21:50;27.13;;;16.23;;
26620;SDS011;14253;44.840;10.444;2022-10-17T05:24:16;24.77;;;16.38;;
26620;SDS011;14253;44.840;10.444;2022-10-17T05:26:42;32.65;;;18.92;;
26620;SDS011;14253;44.840;10.444;2022-10-17T05:29:08;37.08;;;19.77;;
26620;SDS011;14253;44.840;10.444;2022-10-17T05:31:39;33.45;;;21.40;;
26620;SDS011;14253;44.840;10.444;2022-10-17T05:34:06;34.00;;;20.05;;
26620;SDS011;14253;44.840;10.444;2022-10-17T05:36:33;31.48;;;20.98;;
26620;SDS011;14253;44.840;10.444;2022-10-17T05:39:02;32.20;;;20.35;;
26620;SDS011;14253;44.840;10.444;2022-10-17T05:41:28;32.65;;;18.90;;
26620;SDS011;14253;44.840;10.444;2022-10-17T05:43:54;33.00;;;20.70;;
26620;SDS011;14253;44.840;10.444;2022-10-17T05:46:33;33.92;;;20.80;;
26620;SDS011;14253;44.840;10.444;2022-10-17T05:48:59;31.83;;;21.10;;
26620;SDS011;14253;44.840;10.444;2022-10-17T05:51:25;31.70;;;21.55;;
26620;SDS011;14253;44.840;10.444;2022-10-17T05:53:54;34.97;;;21.35;;
26620;SDS011;14253;44.840;10.444;2022-10-17T05:56:24;32.72;;;20.75;;
26620;SDS011;14253;44.840;10.444;2022-10-17T05:58:50;28.58;;;19.40;;
26620;SDS011;14253;44.840;10.444;2022-10-17T06:01:34;29.63;;;20.15;;
26620;SDS011;14253;44.840;10.444;2022-10-17T06:04:00;28.85;;;18.45;;
26620;SDS011;14253;44.840;10.444;2022-10-17T06:06:26;27.55;;;18.60;;
26620;SDS011;14253;44.840;10.444;2022-10-17T06:08:52;35.63;;;20.63;;
26620;SDS011;14253;44.840;10.444;2022-10-17T06:11:23;34.72;;;22.05;;
26620;SDS011;14253;44.840;10.444;2022-10-17T06:13:49;37.13;;;22.60;;
26620;SDS011;14253;44.840;10.444;2022-10-17T06:16:21;40.42;;;23.17;;
26620;SDS011;14253;44.840;10.444;2022-10-17T06:18:47;41.00;;;23.80;;
26620;SDS011;14253;44.840;10.444;2022-10-17T06:21:13;41.65;;;24.13;;
26620;SDS011;14253;44.840;10.444;2022-10-17T06:23:45;37.53;;;23.38;;
26620;SDS011;14253;44.840;10.444;2022-10-17T06:26:21;37.20;;;23.58;;
26620;SDS011;14253;44.840;10.444;2022-10-17T06:28:49;40.75;;;24.60;;
26620;SDS011;14253;44.840;10.444;2022-10-17T06:31:17;34.97;;;24.48;;
26620;SDS011;14253;44.840;10.444;2022-10-17T06:33:44;39.80;;;24.85;;
26620;SDS011;14253;44.840;10.444;2022-10-17T06:36:13;42.67;;;26.90;;
26620;SDS011;14253;44.840;10.444;2022-10-17T06:38:40;42.20;;;26.15;;
26620;SDS011;14253;44.840;10.444;2022-10-17T06:41:15;35.38;;;24.05;;
26620;SDS011;14253;44.840;10.444;2022-10-17T06:43:44;43.15;;;27.42;;
26620;SDS011;14253;44.840;10.444;2022-10-17T06:46:29;42.92;;;28.30;;
26620;SDS011;14253;44.840;10.444;2022-10-17T06:49:01;44.78;;;28.75;;
26620;SDS011;14253;44.840;10.444;2022-10-17T06:51:49;45.88;;;31.10;;
26620;SDS011;14253;44.840;10.444;2022-10-17T06:54:18;42.97;;;28.85;;
26620;SDS011;14253;44.840;10.444;2022-10-17T06:57:05;45.85;;;30.80;;
26620;SDS011;14253;44.840;10.444;2022-10-17T06:59:46;50.85;;;31.83;;
26620;SDS011;14253;44.840;10.444;2022-10-17T07:02:24;48.72;;;32.17;;
26620;SDS011;14253;44.840;10.444;2022-10-17T07:04:52;49.50;;;33.45;;
26620;SDS011;14253;44.840;10.444;2022-10-17T07:07:17;53.22;;;32.92;;
26620;SDS011;14253;44.840;10.444;2022-10-17T07:09:44;53.55;;;34.22;;
26620;SDS011;14253;44.840;10.444;2022-10-17T07:12:10;51.90;;;33.63;;
26620;SDS011;14253;44.840;10.444;2022-10-17T07:14:41;50.40;;;33.72;;
26620;SDS011;14253;44.840;10.444;2022-10-17T07:17:07;50.55;;;35.20;;
26620;SDS011;14253;44.840;10.444;2022-10-17T07:19:34;53.88;;;36.13;;
26620;SDS011;14253;44.840;10.444;2022-10-17T07:22:01;51.55;;;37.53;;
26620;SDS011;14253;44.840;10.444;2022-10-17T07:24:28;54.42;;;38.00;;
26620;SDS011;14253;44.840;10.444;2022-10-17T07:27:06;51.75;;;37.45;;
26620;SDS011;14253;44.840;10.444;2022-10-17T07:29:32;48.72;;;35.63;;
26620;SDS011;14253;44.840;10.444;2022-10-17T07:32:08;53.50;;;39.50;;
26620;SDS011;14253;44.840;10.444;2022-10-17T07:34:34;56.25;;;39.00;;
26620;SDS011;14253;44.840;10.444;2022-10-17T07:37:01;56.25;;;39.88;;
26620;SDS011;14253;44.840;10.444;2022-10-17T07:39:28;59.55;;;40.58;;
26620;SDS011;14253;44.840;10.444;2022-10-17T07:41:54;72.63;;;41.92;;
26620;SDS011;14253;44.840;10.444;2022-10-17T07:44:21;64.47;;;43.08;;
26620;SDS011;14253;44.840;10.444;2022-10-17T07:46:50;69.05;;;42.17;;
26620;SDS011;14253;44.840;10.444;2022-10-17T07:49:16;69.28;;;43.83;;
26620;SDS011;14253;44.840;10.444;2022-10-17T07:51:42;65.53;;;43.08;;
26620;SDS011;14253;44.840;10.444;2022-10-17T07:54:09;68.90;;;41.83;;
26620;SDS011;14253;44.840;10.444;2022-10-17T07:56:34;68.60;;;44.38;;
26620;SDS011;14253;44.840;10.444;2022-10-17T07:59:00;61.97;;;40.42;;
26620;SDS011;14253;44.840;10.444;2022-10-17T08:01:26;62.97;;;40.60;;
26620;SDS011;14253;44.840;10.444;2022-10-17T08:03:52;59.75;;;37.88;;
26620;SDS011;14253;44.840;10.444;2022-10-17T08:06:18;53.00;;;35.63;;
26620;SDS011;14253;44.840;10.444;2022-10-17T08:08:44;47.60;;;33.90;;
26620;SDS011;14253;44.840;10.444;2022-10-17T08:11:11;54.97;;;33.28;;
26620;SDS011;14253;44.840;10.444;2022-10-17T08:13:38;47.97;;;33.75;;
26620;SDS011;14253;44.840;10.444;2022-10-17T08:16:05;46.08;;;33.50;;
26620;SDS011;14253;44.840;10.444;2022-10-17T08:18:33;55.60;;;34.05;;
26620;SDS011;14253;44.840;10.444;2022-10-17T08:21:01;45.20;;;32.17;;
26620;SDS011;14253;44.840;10.444;2022-10-17T08:23:30;44.03;;;31.60;;
26620;SDS011;14253;44.840;10.444;2022-10-17T08:26:00;43.30;;;30.38;;
26620;SDS011;14253;44.840;10.444;2022-10-17T08:28:27;46.55;;;30.25;;
26620;SDS011;14253;44.840;10.444;2022-10-17T08:31:03;38.00;;;27.70;;
26620;SDS011;14253;44.840;10.444;2022-10-17T08:33:31;40.80;;;28.50;;
26620;SDS011;14253;44.840;10.444;2022-10-17T08:36:00;37.58;;;27.48;;
26620;SDS011;14253;44.840;10.444;2022-10-17T08:38:28;38.40;;;28.00;;
26620;SDS011;14253;44.840;10.444;2022-10-17T08:40:59;37.13;;;28.15;;
26620;SDS011;14253;44.840;10.444;2022-10-17T08:46:57;37.30;;;25.63;;
26620;SDS011;14253;44.840;10.444;2022-10-17T08:49:53;36.72;;;27.15;;
26620;SDS011;14253;44.840;10.444;2022-10-17T08:52:42;38.90;;;26.65;;
26620;SDS011;14253;44.840;10.444;2022-10-17T08:55:32;41.13;;;28.42;;
26620;SDS011;14253;44.840;10.444;2022-10-17T08:58:12;43.08;;;28.40;;
26620;SDS011;14253;44.840;10.444;2022-10-17T09:04:23;45.75;;;30.23;;
26620;SDS011;14253;44.840;10.444;2022-10-17T09:07:16;50.13;;;33.25;;
26620;SDS011;14253;44.840;10.444;2022-10-17T09:16:04;50.83;;;35.40;;
26620;SDS011;14253;44.840;10.444;2022-10-17T09:19:45;51.23;;;34.23;;
26620;SDS011;14253;44.840;10.444;2022-10-17T09:23:41;52.90;;;35.00;;
26620;SDS011;14253;44.840;10.444;2022-10-17T09:26:06;52.15;;;35.30;;
26620;SDS011;14253;44.840;10.444;2022-10-17T09:28:58;49.58;;;35.90;;
26620;SDS011;14253;44.840;10.444;2022-10-17T09:34:51;53.92;;;36.20;;
26620;SDS011;14253;44.840;10.444;2022-10-17T09:37:41;64.60;;;40.33;;
26620;SDS011;14253;44.840;10.444;2022-10-17T09:40:34;52.88;;;37.30;;
26620;SDS011;14253;44.840;10.444;2022-10-17T09:43:38;51.17;;;36.92;;
26620;SDS011;14253;44.840;10.444;2022-10-17T09:49:35;53.70;;;35.75;;
26620;SDS011;14253;44.840;10.444;2022-10-17T09:52:21;52.83;;;34.00;;
26620;SDS011;14253;44.840;10.444;2022-10-17T09:55:05;57.95;;;35.22;;
26620;SDS011;14253;44.840;10.444;2022-10-17T09:58:00;48.65;;;32.78;;
26620;SDS011;14253;44.840;10.444;2022-10-17T10:00:47;49.92;;;33.50;;
26620;SDS011;14253;44.840;10.444;2022-10-17T10:03:37;44.28;;;31.75;;
26620;SDS011;14253;44.840;10.444;2022-10-17T10:06:17;45.28;;;30.92;;
26620;SDS011;14253;44.840;10.444;2022-10-17T10:08:59;47.88;;;33.00;;
26620;SDS011;14253;44.840;10.444;2022-10-17T10:14:32;45.25;;;32.55;;
26620;SDS011;14253;44.840;10.444;2022-10-17T10:17:34;42.85;;;30.95;;
26620;SDS011;14253;44.840;10.444;2022-10-17T10:20:28;44.22;;;31.05;;
26620;SDS011;14253;44.840;10.444;2022-10-17T10:23:14;44.85;;;32.38;;
26620;SDS011;14253;44.840;10.444;2022-10-17T10:25:58;45.88;;;30.70;;
26620;SDS011;14253;44.840;10.444;2022-10-17T10:28:33;47.40;;;32.85;;
26620;SDS011;14253;44.840;10.444;2022-10-17T10:31:07;47.92;;;32.20;;
26620;SDS011;14253;44.840;10.444;2022-10-17T10:33:35;42.75;;;31.30;;
26620;SDS011;14253;44.840;10.444;2022-10-17T10:36:05;46.70;;;32.40;;
26620;SDS011;14253;44.840;10.444;2022-10-17T10:38:33;48.35;;;31.67;;
26620;SDS011;14253;44.840;10.444;2022-10-17T10:41:03;41.35;;;31.50;;
26620;SDS011;14253;44.840;10.444;2022-10-17T10:43:33;43.22;;;30.95;;
26620;SDS011;14253;44.840;10.444;2022-10-17T10:46:41;41.38;;;30.20;;
26620;SDS011;14253;44.840;10.444;2022-10-17T10:49:01;37.60;;;28.65;;
26620;SDS011;14253;44.840;10.444;2022-10-17T10:51:29;39.70;;;29.30;;
26620;SDS011;14253;44.840;10.444;2022-10-17T10:59:48;45.35;;;30.73;;
26620;SDS011;14253;44.840;10.444;2022-10-17T11:02:42;43.67;;;28.40;;
26620;SDS011;14253;44.840;10.444;2022-10-17T11:05:15;43.20;;;29.33;;
26620;SDS011;14253;44.840;10.444;2022-10-17T11:07:57;45.47;;;30.05;;
26620;SDS011;14253;44.840;10.444;2022-10-17T11:10:40;41.90;;;29.35;;
26620;SDS011;14253;44.840;10.444;2022-10-17T11:18:27;53.45;;;33.42;;
26620;SDS011;14253;44.840;10.444;2022-10-17T11:26:27;47.28;;;31.52;;
26620;SDS011;14253;44.840;10.444;2022-10-17T11:28:56;46.42;;;31.50;;
26620;SDS011;14253;44.840;10.444;2022-10-17T11:31:28;47.40;;;31.80;;
26620;SDS011;14253;44.840;10.444;2022-10-17T11:34:00;47.00;;;32.75;;
26620;SDS011;14253;44.840;10.444;2022-10-17T11:39:05;43.55;;;29.90;;
26620;SDS011;14253;44.840;10.444;2022-10-17T11:41:56;43.90;;;30.95;;
26620;SDS011;14253;44.840;10.444;2022-10-17T11:44:37;46.50;;;31.53;;
26620;SDS011;14253;44.840;10.444;2022-10-17T11:49:35;46.00;;;30.98;;
26620;SDS011;14253;44.840;10.444;2022-10-17T11:52:14;45.05;;;29.88;;
26620;SDS011;14253;44.840;10.444;2022-10-17T11:55:01;42.30;;;29.80;;
26620;SDS011;14253;44.840;10.444;2022-10-17T11:57:36;47.28;;;32.28;;
26620;SDS011;14253;44.840;10.444;2022-10-17T12:06:09;39.05;;;28.02;;
26620;SDS011;14253;44.840;10.444;2022-10-17T12:08:48;42.33;;;27.90;;
26620;SDS011;14253;44.840;10.444;2022-10-17T12:11:28;37.78;;;26.60;;
26620;SDS011;14253;44.840;10.444;2022-10-17T12:14:40;39.97;;;25.85;;
26620;SDS011;14253;44.840;10.444;2022-10-17T12:19:52;32.78;;;23.02;;
26620;SDS011;14253;44.840;10.444;2022-10-17T12:22:43;33.95;;;24.10;;
26620;SDS011;14253;44.840;10.444;2022-10-17T12:25:22;32.88;;;23.58;;
26620;SDS011;14253;44.840;10.444;2022-10-17T12:27:48;36.30;;;23.10;;
26620;SDS011;14253;44.840;10.444;2022-10-17T12:35:28;33.75;;;24.33;;
26620;SDS011;14253;44.840;10.444;2022-10-17T12:45:47;39.75;;;24.58;;
26620;SDS011;14253;44.840;10.444;2022-10-17T12:51:05;37.92;;;24.67;;
26620;SDS011;14253;44.840;10.444;2022-10-17T12:59:14;33.38;;;22.33;;
26620;SDS011;14253;44.840;10.444;2022-10-17T13:02:00;34.95;;;22.52;;
26620;SDS011;14253;44.840;10.444;2022-10-17T13:04:28;39.35;;;22.70;;
26620;SDS011;14253;44.840;10.444;2022-10-17T13:06:57;36.65;;;23.58;;
26620;SDS011;14253;44.840;10.444;2022-10-17T13:09:29;34.55;;;22.25;;
26620;SDS011;14253;44.840;10.444;2022-10-17T13:12:03;30.15;;;20.98;;
26620;SDS011;14253;44.840;10.444;2022-10-17T13:14:35;36.13;;;23.73;;
26620;SDS011;14253;44.840;10.444;2022-10-17T13:17:06;37.28;;;22.40;;
26620;SDS011;14253;44.840;10.444;2022-10-17T13:19:46;33.15;;;22.73;;
26620;SDS011;14253;44.840;10.444;2022-10-17T13:22:13;33.47;;;22.83;;
26620;SDS011;14253;44.840;10.444;2022-10-17T13:24:40;34.97;;;22.85;;
26620;SDS011;14253;44.840;10.444;2022-10-17T13:27:20;32.25;;;21.90;;
26620;SDS011;14253;44.840;10.444;2022-10-17T13:29:48;31.02;;;20.00;;
26620;SDS011;14253;44.840;10.444;2022-10-17T13:32:14;44.65;;;22.38;;
26620;SDS011;14253;44.840;10.444;2022-10-17T13:34:40;30.60;;;20.88;;
26620;SDS011;14253;44.840;10.444;2022-10-17T13:37:07;30.17;;;19.90;;
26620;SDS011;14253;44.840;10.444;2022-10-17T13:39:40;31.63;;;21.73;;
26620;SDS011;14253;44.840;10.444;2022-10-17T13:42:28;28.90;;;19.58;;
26620;SDS011;14253;44.840;10.444;2022-10-17T13:44:56;29.67;;;20.20;;
26620;SDS011;14253;44.840;10.444;2022-10-17T13:47:23;29.85;;;19.23;;
26620;SDS011;14253;44.840;10.444;2022-10-17T13:49:55;24.90;;;17.65;;
26620;SDS011;14253;44.840;10.444;2022-10-17T13:52:23;32.05;;;19.83;;
26620;SDS011;14253;44.840;10.444;2022-10-17T13:54:52;31.38;;;18.40;;
26620;SDS011;14253;44.840;10.444;2022-10-17T13:57:26;26.30;;;16.98;;
26620;SDS011;14253;44.840;10.444;2022-10-17T13:59:58;24.52;;;17.73;;
26620;SDS011;14253;44.840;10.444;2022-10-17T14:02:27;31.77;;;19.17;;
26620;SDS011;14253;44.840;10.444;2022-10-17T14:05:14;30.90;;;18.10;;
26620;SDS011;14253;44.840;10.444;2022-10-17T14:10:31;29.25;;;18.83;;
26620;SDS011;14253;44.840;10.444;2022-10-17T14:13:02;27.13;;;17.90;;
26620;SDS011;14253;44.840;10.444;2022-10-17T14:15:33;24.25;;;14.68;;
26620;SDS011;14253;44.840;10.444;2022-10-17T14:18:04;30.55;;;17.50;;
26620;SDS011;14253;44.840;10.444;2022-10-17T14:20:32;27.20;;;18.95;;
26620;SDS011;14253;44.840;10.444;2022-10-17T14:23:02;30.20;;;19.48;;
26620;SDS011;14253;44.840;10.444;2022-10-17T14:28:06;29.55;;;18.13;;
26620;SDS011;14253;44.840;10.444;2022-10-17T14:30:43;25.33;;;16.70;;
26620;SDS011;14253;44.840;10.444;2022-10-17T14:33:15;23.85;;;14.88;;
26620;SDS011;14253;44.840;10.444;2022-10-17T14:35:50;23.95;;;13.77;;
26620;SDS011;14253;44.840;10.444;2022-10-17T14:38:17;26.10;;;16.58;;
26620;SDS011;14253;44.840;10.444;2022-10-17T14:41:00;24.63;;;15.65;;
26620;SDS011;14253;44.840;10.444;2022-10-17T14:43:30;31.23;;;18.80;;
26620;SDS011;14253;44.840;10.444;2022-10-17T14:45:57;25.33;;;17.98;;
26620;SDS011;14253;44.840;10.444;2022-10-17T14:48:25;24.65;;;14.82;;
26620;SDS011;14253;44.840;10.444;2022-10-17T14:51:09;23.25;;;16.77;;
26620;SDS011;14253;44.840;10.444;2022-10-17T14:53:41;28.13;;;19.23;;
26620;SDS011;14253;44.840;10.444;2022-10-17T14:56:22;26.20;;;16.67;;
26620;SDS011;14253;44.840;10.444;2022-10-17T14:58:50;23.98;;;14.65;;
26620;SDS011;14253;44.840;10.444;2022-10-17T15:01:17;20.75;;;14.25;;
26620;SDS011;14253;44.840;10.444;2022-10-17T15:03:43;27.10;;;16.55;;
26620;SDS011;14253;44.840;10.444;2022-10-17T15:06:19;23.75;;;13.20;;
26620;SDS011;14253;44.840;10.444;2022-10-17T15:08:47;20.52;;;11.45;;
26620;SDS011;14253;44.840;10.444;2022-10-17T15:11:13;23.65;;;13.57;;
26620;SDS011;14253;44.840;10.444;2022-10-17T15:13:39;19.02;;;12.07;;
26620;SDS011;14253;44.840;10.444;2022-10-17T15:16:17;26.00;;;15.07;;
26620;SDS011;14253;44.840;10.444;2022-10-17T15:18:47;18.15;;;12.98;;
26620;SDS011;14253;44.840;10.444;2022-10-17T15:21:14;18.42;;;12.43;;
26620;SDS011;14253;44.840;10.444;2022-10-17T15:23:42;19.77;;;14.13;;
26620;SDS011;14253;44.840;10.444;2022-10-17T15:26:41;22.00;;;14.05;;
26620;SDS011;14253;44.840;10.444;2022-10-17T15:29:00;21.77;;;13.32;;
26620;SDS011;14253;44.840;10.444;2022-10-17T15:31:27;20.52;;;13.23;;
26620;SDS011;14253;44.840;10.444;2022-10-17T15:33:55;23.63;;;14.73;;
26620;SDS011;14253;44.840;10.444;2022-10-17T15:36:22;26.42;;;16.02;;
26620;SDS011;14253;44.840;10.444;2022-10-17T15:38:51;18.73;;;13.18;;
26620;SDS011;14253;44.840;10.444;2022-10-17T15:41:20;22.25;;;14.93;;
26620;SDS011;14253;44.840;10.444;2022-10-17T15:43:47;23.10;;;15.13;;
26620;SDS011;14253;44.840;10.444;2022-10-17T15:46:15;23.25;;;14.02;;
26620;SDS011;14253;44.840;10.444;2022-10-17T15:48:49;19.42;;;13.23;;
26620;SDS011;14253;44.840;10.444;2022-10-17T15:51:16;24.55;;;13.02;;
26620;SDS011;14253;44.840;10.444;2022-10-17T15:53:42;21.25;;;14.13;;
26620;SDS011;14253;44.840;10.444;2022-10-17T15:56:18;19.85;;;13.13;;
26620;SDS011;14253;44.840;10.444;2022-10-17T15:59:06;24.65;;;12.60;;
26620;SDS011;14253;44.840;10.444;2022-10-17T16:01:42;18.38;;;12.27;;
26620;SDS011;14253;44.840;10.444;2022-10-17T16:04:12;23.42;;;12.82;;
26620;SDS011;14253;44.840;10.444;2022-10-17T16:06:40;20.25;;;14.07;;
26620;SDS011;14253;44.840;10.444;2022-10-17T16:09:07;23.20;;;13.73;;
26620;SDS011;14253;44.840;10.444;2022-10-17T16:11:41;21.73;;;14.05;;
26620;SDS011;14253;44.840;10.444;2022-10-17T16:14:13;20.20;;;12.70;;
26620;SDS011;14253;44.840;10.444;2022-10-17T16:16:40;23.05;;;12.32;;
26620;SDS011;14253;44.840;10.444;2022-10-17T16:19:06;18.95;;;13.00;;
26620;SDS011;14253;44.840;10.444;2022-10-17T16:21:33;19.13;;;12.90;;
26620;SDS011;14253;44.840;10.444;2022-10-17T16:24:02;21.10;;;14.15;;
26620;SDS011;14253;44.840;10.444;2022-10-17T16:26:29;24.83;;;14.15;;
26620;SDS011;14253;44.840;10.444;2022-10-17T16:28:55;22.27;;;13.40;;
26620;SDS011;14253;44.840;10.444;2022-10-17T16:33:50;23.15;;;14.05;;
26620;SDS011;14253;44.840;10.444;2022-10-17T16:36:19;29.33;;;14.32;;
26620;SDS011;14253;44.840;10.444;2022-10-17T16:38:45;23.10;;;13.48;;
26620;SDS011;14253;44.840;10.444;2022-10-17T16:41:22;23.00;;;13.85;;